sensor_id;sensor_type;location;lat;lon;timestamp;pressure;altitude;pressure_sealevel;temperature;humidity
68871;BME280;55906;52.278;6.808;2022-10-16T00:01:19;100931.84;;;13.30;82.05
68871;BME280;55906;52.278;6.808;2022-10-16T00:03:47;100930.88;;;13.24;82.51
68871;BME280;55906;52.278;6.808;2022-10-16T00:06:15;100926.47;;;13.24;82.41
68871;BME280;55906;52.278;6.808;2022-10-16T00:08:42;100923.84;;;13.24;82.71
68871;BME280;55906;52.278;6.808;2022-10-16T00:11:11;100922.94;;;13.24;82.46
68871;BME280;55906;52.278;6.808;2022-10-16T00:13:41;100926.53;;;13.27;82.47
68871;BME280;55906;52.278;6.808;2022-10-16T00:16:10;100921.16;;;13.23;82.75
68871;BME280;55906;52.278;6.808;2022-10-16T00:18:37;100927.28;;;13.19;83.29
68871;BME280;55906;52.278;6.808;2022-10-16T00:21:06;100919.38;;;13.20;82.81
68871;BME280;55906;52.278;6.808;2022-10-16T00:23:33;100921.91;;;13.16;83.24
68871;BME280;55906;52.278;6.808;2022-10-16T00:26:01;100923.66;;;13.15;83.29
68871;BME280;55906;52.278;6.808;2022-10-16T00:28:28;100929.03;;;13.18;83.46
68871;BME280;55906;52.278;6.808;2022-10-16T00:30:56;100922.88;;;13.19;83.33
68871;BME280;55906;52.278;6.808;2022-10-16T00:33:23;100920.25;;;13.21;82.98
68871;BME280;55906;52.278;6.808;2022-10-16T00:35:50;100925.59;;;13.24;83.00
68871;BME280;55906;52.278;6.808;2022-10-16T00:38:17;100918.56;;;13.24;83.00
68871;BME280;55906;52.278;6.808;2022-10-16T00:40:43;100928.31;;;13.28;83.12
68871;BME280;55906;52.278;6.808;2022-10-16T00:43:14;100914.22;;;13.29;82.80
68871;BME280;55906;52.278;6.808;2022-10-16T00:46:00;100920.31;;;13.24;83.39
68871;BME280;55906;52.278;6.808;2022-10-16T00:48:27;100924.75;;;13.26;83.42
68871;BME280;55906;52.278;6.808;2022-10-16T00:50:54;100923.03;;;13.30;83.49
68871;BME280;55906;52.278;6.808;2022-10-16T00:53:21;100922.97;;;13.25;83.51
68871;BME280;55906;52.278;6.808;2022-10-16T00:55:48;100922.91;;;13.22;83.73
68871;BME280;55906;52.278;6.808;2022-10-16T00:58:15;100922.00;;;13.20;83.98
68871;BME280;55906;52.278;6.808;2022-10-16T01:00:41;100932.66;;;13.25;83.80
68871;BME280;55906;52.278;6.808;2022-10-16T01:03:25;100926.53;;;13.27;83.90
68871;BME280;55906;52.278;6.808;2022-10-16T01:05:59;100912.34;;;13.22;84.54
68871;BME280;55906;52.278;6.808;2022-10-16T01:08:33;100918.63;;;13.29;84.60
68871;BME280;55906;52.278;6.808;2022-10-16T01:11:06;100909.78;;;13.27;84.51
68871;BME280;55906;52.278;6.808;2022-10-16T01:13:41;100917.72;;;13.28;84.98
68871;BME280;55906;52.278;6.808;2022-10-16T01:16:12;100925.81;;;13.37;85.16
68871;BME280;55906;52.278;6.808;2022-10-16T01:18:44;100914.28;;;13.32;85.22
68871;BME280;55906;52.278;6.808;2022-10-16T01:21:14;100919.50;;;13.29;85.61
68871;BME280;55906;52.278;6.808;2022-10-16T01:23:50;100924.00;;;13.35;85.94
68871;BME280;55906;52.278;6.808;2022-10-16T01:26:41;100936.25;;;13.30;86.31
68871;BME280;55906;52.278;6.808;2022-10-16T01:29:18;100931.84;;;13.30;86.59
68871;BME280;55906;52.278;6.808;2022-10-16T01:31:49;100941.53;;;13.30;87.34
68871;BME280;55906;52.278;6.808;2022-10-16T01:34:20;100939.84;;;13.33;87.00
68871;BME280;55906;52.278;6.808;2022-10-16T01:36:52;100935.38;;;13.29;87.03
68871;BME280;55906;52.278;6.808;2022-10-16T01:39:24;100939.75;;;13.29;87.20
68871;BME280;55906;52.278;6.808;2022-10-16T01:42:01;100943.31;;;13.31;87.34
68871;BME280;55906;52.278;6.808;2022-10-16T01:44:32;100930.91;;;13.27;87.77
68871;BME280;55906;52.278;6.808;2022-10-16T01:47:01;100919.38;;;13.22;88.30
68871;BME280;55906;52.278;6.808;2022-10-16T01:49:32;100914.19;;;13.26;88.03
68871;BME280;55906;52.278;6.808;2022-10-16T01:52:03;100921.19;;;13.24;88.31
68871;BME280;55906;52.278;6.808;2022-10-16T01:54:33;100918.44;;;13.18;88.76
68871;BME280;55906;52.278;6.808;2022-10-16T01:57:01;100917.50;;;13.16;88.87
68871;BME280;55906;52.278;6.808;2022-10-16T01:59:35;100919.22;;;13.14;89.07
68871;BME280;55906;52.278;6.808;2022-10-16T02:02:07;100915.69;;;13.12;89.17
68871;BME280;55906;52.278;6.808;2022-10-16T02:04:38;100912.88;;;13.03;89.55
68871;BME280;55906;52.278;6.808;2022-10-16T02:07:06;100912.78;;;12.98;90.37
68871;BME280;55906;52.278;6.808;2022-10-16T02:09:34;100909.25;;;12.98;89.89
68871;BME280;55906;52.278;6.808;2022-10-16T02:12:07;100909.09;;;12.89;90.54
68871;BME280;55906;52.278;6.808;2022-10-16T02:14:39;100922.28;;;12.89;91.05
68871;BME280;55906;52.278;6.808;2022-10-16T02:17:10;100926.75;;;12.91;91.27
68871;BME280;55906;52.278;6.808;2022-10-16T02:19:37;100928.47;;;12.89;91.50
68871;BME280;55906;52.278;6.808;2022-10-16T02:22:05;100937.19;;;12.85;91.29
68871;BME280;55906;52.278;6.808;2022-10-16T02:24:39;100946.97;;;12.91;91.78
68871;BME280;55906;52.278;6.808;2022-10-16T02:27:11;100934.63;;;12.90;91.64
68871;BME280;55906;52.278;6.808;2022-10-16T02:29:43;100939.09;;;12.94;91.72
68871;BME280;55906;52.278;6.808;2022-10-16T02:32:16;100921.41;;;12.88;92.18
68871;BME280;55906;52.278;6.808;2022-10-16T02:34:44;100929.41;;;12.93;91.75
68871;BME280;55906;52.278;6.808;2022-10-16T02:37:12;100934.75;;;12.96;92.07
68871;BME280;55906;52.278;6.808;2022-10-16T02:39:40;100938.22;;;12.93;91.80
68871;BME280;55906;52.278;6.808;2022-10-16T02:42:09;100933.91;;;12.98;92.36
68871;BME280;55906;52.278;6.808;2022-10-16T02:44:36;100941.84;;;12.98;91.99
68871;BME280;55906;52.278;6.808;2022-10-16T02:47:04;100937.66;;;13.09;92.02
68871;BME280;55906;52.278;6.808;2022-10-16T02:49:31;100943.78;;;13.07;91.78
68871;BME280;55906;52.278;6.808;2022-10-16T02:51:57;100944.75;;;13.12;91.34
68871;BME280;55906;52.278;6.808;2022-10-16T02:54:24;100942.97;;;13.11;91.38
68871;BME280;55906;52.278;6.808;2022-10-16T02:56:51;100944.72;;;13.10;91.58
68871;BME280;55906;52.278;6.808;2022-10-16T02:59:18;100932.41;;;13.11;91.41
68871;BME280;55906;52.278;6.808;2022-10-16T03:01:44;100941.34;;;13.18;90.87
68871;BME280;55906;52.278;6.808;2022-10-16T03:04:12;100943.09;;;13.17;91.09
68871;BME280;55906;52.278;6.808;2022-10-16T03:06:39;100947.53;;;13.20;91.07
68871;BME280;55906;52.278;6.808;2022-10-16T03:09:05;100944.00;;;13.19;90.84
68871;BME280;55906;52.278;6.808;2022-10-16T03:11:32;100932.53;;;13.17;91.10
68871;BME280;55906;52.278;6.808;2022-10-16T03:13:58;100933.50;;;13.22;90.95
68871;BME280;55906;52.278;6.808;2022-10-16T03:16:25;100941.50;;;13.27;90.42
68871;BME280;55906;52.278;6.808;2022-10-16T03:18:52;100922.97;;;13.25;90.24
68871;BME280;55906;52.278;6.808;2022-10-16T03:21:20;100940.59;;;13.26;90.40
68871;BME280;55906;52.278;6.808;2022-10-16T03:23:46;100946.78;;;13.28;90.18
68871;BME280;55906;52.278;6.808;2022-10-16T03:26:13;100952.19;;;13.34;89.82
68871;BME280;55906;52.278;6.808;2022-10-16T03:28:39;100945.22;;;13.39;89.42
68871;BME280;55906;52.278;6.808;2022-10-16T03:31:06;100943.44;;;13.38;89.42
68871;BME280;55906;52.278;6.808;2022-10-16T03:33:33;100935.47;;;13.35;89.28
68871;BME280;55906;52.278;6.808;2022-10-16T03:36:00;100937.31;;;13.42;89.16
68871;BME280;55906;52.278;6.808;2022-10-16T03:38:28;100946.16;;;13.43;89.21
68871;BME280;55906;52.278;6.808;2022-10-16T03:40:54;100944.44;;;13.47;88.82
68871;BME280;55906;52.278;6.808;2022-10-16T03:43:21;100945.22;;;13.39;88.89
68871;BME280;55906;52.278;6.808;2022-10-16T03:45:49;100946.13;;;13.41;88.99
68871;BME280;55906;52.278;6.808;2022-10-16T03:48:16;100945.22;;;13.41;88.74
68871;BME280;55906;52.278;6.808;2022-10-16T03:50:42;100940.75;;;13.35;88.85
68871;BME280;55906;52.278;6.808;2022-10-16T03:53:09;100954.88;;;13.37;88.79
68871;BME280;55906;52.278;6.808;2022-10-16T03:55:37;100955.81;;;13.42;88.90
68871;BME280;55906;52.278;6.808;2022-10-16T03:58:04;100945.16;;;13.36;88.87
68871;BME280;55906;52.278;6.808;2022-10-16T04:00:31;100949.53;;;13.34;88.88
68871;BME280;55906;52.278;6.808;2022-10-16T04:03:00;100955.69;;;13.33;89.14
68871;BME280;55906;52.278;6.808;2022-10-16T04:05:27;100956.59;;;13.35;89.17
68871;BME280;55906;52.278;6.808;2022-10-16T04:07:53;100944.19;;;13.31;89.13
68871;BME280;55906;52.278;6.808;2022-10-16T04:10:20;100947.06;;;13.45;88.64
68871;BME280;55906;52.278;6.808;2022-10-16T04:12:48;100964.69;;;13.46;88.58
68871;BME280;55906;52.278;6.808;2022-10-16T04:15:15;100965.66;;;13.51;88.37
68871;BME280;55906;52.278;6.808;2022-10-16T04:17:41;100969.13;;;13.49;88.44
68871;BME280;55906;52.278;6.808;2022-10-16T04:20:08;100967.38;;;13.49;88.39
68871;BME280;55906;52.278;6.808;2022-10-16T04:22:35;100977.97;;;13.51;88.30
68871;BME280;55906;52.278;6.808;2022-10-16T04:25:02;100961.97;;;13.41;88.67
68871;BME280;55906;52.278;6.808;2022-10-16T04:27:28;100977.00;;;13.44;88.56
68871;BME280;55906;52.278;6.808;2022-10-16T04:29:58;100976.00;;;13.37;88.66
68871;BME280;55906;52.278;6.808;2022-10-16T04:32:25;100993.75;;;13.44;88.73
68871;BME280;55906;52.278;6.808;2022-10-16T04:34:52;100990.16;;;13.41;88.66
68871;BME280;55906;52.278;6.808;2022-10-16T04:37:23;100993.69;;;13.41;88.70
68871;BME280;55906;52.278;6.808;2022-10-16T04:39:49;100992.81;;;13.41;88.94
68871;BME280;55906;52.278;6.808;2022-10-16T04:42:16;100989.22;;;13.37;88.70
68871;BME280;55906;52.278;6.808;2022-10-16T04:44:43;100996.28;;;13.38;88.88
68871;BME280;55906;52.278;6.808;2022-10-16T04:47:12;101005.09;;;13.39;89.00
68871;BME280;55906;52.278;6.808;2022-10-16T04:49:39;101003.31;;;13.38;88.98
68871;BME280;55906;52.278;6.808;2022-10-16T04:52:06;101013.06;;;13.40;88.72
68871;BME280;55906;52.278;6.808;2022-10-16T04:54:34;101008.72;;;13.44;88.92
68871;BME280;55906;52.278;6.808;2022-10-16T04:57:01;101011.28;;;13.39;88.95
68871;BME280;55906;52.278;6.808;2022-10-16T04:59:27;101012.25;;;13.44;88.93
68871;BME280;55906;52.278;6.808;2022-10-16T05:01:54;101011.38;;;13.45;88.96
68871;BME280;55906;52.278;6.808;2022-10-16T05:04:22;101019.19;;;13.39;89.00
68871;BME280;55906;52.278;6.808;2022-10-16T05:06:49;101018.28;;;13.37;89.32
68871;BME280;55906;52.278;6.808;2022-10-16T05:09:15;101022.75;;;13.41;89.04
68871;BME280;55906;52.278;6.808;2022-10-16T05:11:42;101026.28;;;13.42;88.80
68871;BME280;55906;52.278;6.808;2022-10-16T05:14:09;101036.84;;;13.40;89.18
68871;BME280;55906;52.278;6.808;2022-10-16T05:16:35;101026.25;;;13.40;88.81
68871;BME280;55906;52.278;6.808;2022-10-16T05:19:02;101038.63;;;13.41;88.84
68871;BME280;55906;52.278;6.808;2022-10-16T05:21:30;101039.41;;;13.36;89.29
68871;BME280;55906;52.278;6.808;2022-10-16T05:23:56;101032.38;;;13.38;89.29
68871;BME280;55906;52.278;6.808;2022-10-16T05:26:23;101049.91;;;13.31;89.53
68871;BME280;55906;52.278;6.808;2022-10-16T05:28:49;101042.00;;;13.33;89.26
68871;BME280;55906;52.278;6.808;2022-10-16T05:31:16;101057.75;;;13.28;89.03
68871;BME280;55906;52.278;6.808;2022-10-16T05:33:43;101051.56;;;13.26;89.42
68871;BME280;55906;52.278;6.808;2022-10-16T05:36:10;101055.88;;;13.21;89.52
68871;BME280;55906;52.278;6.808;2022-10-16T05:38:39;101065.59;;;13.22;89.97
68871;BME280;55906;52.278;6.808;2022-10-16T05:41:06;101065.44;;;13.16;89.66
68871;BME280;55906;52.278;6.808;2022-10-16T05:43:33;101070.72;;;13.16;89.95
68871;BME280;55906;52.278;6.808;2022-10-16T05:46:01;101070.72;;;13.16;89.89
68871;BME280;55906;52.278;6.808;2022-10-16T05:48:28;101068.88;;;13.12;90.08
68871;BME280;55906;52.278;6.808;2022-10-16T05:50:57;101085.59;;;13.11;90.44
68871;BME280;55906;52.278;6.808;2022-10-16T05:53:23;101077.66;;;13.11;90.31
68871;BME280;55906;52.278;6.808;2022-10-16T05:55:55;101073.19;;;13.07;90.46
68871;BME280;55906;52.278;6.808;2022-10-16T05:58:22;101092.50;;;13.04;90.38
68871;BME280;55906;52.278;6.808;2022-10-16T06:00:56;101065.16;;;13.01;90.04
68871;BME280;55906;52.278;6.808;2022-10-16T06:03:22;101099.50;;;13.01;90.10
68871;BME280;55906;52.278;6.808;2022-10-16T06:05:49;101097.63;;;12.98;90.85
68871;BME280;55906;52.278;6.808;2022-10-16T06:08:16;101104.59;;;12.93;90.97
68871;BME280;55906;52.278;6.808;2022-10-16T06:10:43;101111.63;;;12.93;90.67
68871;BME280;55906;52.278;6.808;2022-10-16T06:13:11;101112.34;;;12.86;91.22
68871;BME280;55906;52.278;6.808;2022-10-16T06:15:38;101119.38;;;12.85;91.55
68871;BME280;55906;52.278;6.808;2022-10-16T06:18:07;101121.97;;;12.82;91.85
68871;BME280;55906;52.278;6.808;2022-10-16T06:20:33;101124.75;;;12.90;91.47
68871;BME280;55906;52.278;6.808;2022-10-16T06:23:00;101127.34;;;12.87;91.30
68871;BME280;55906;52.278;6.808;2022-10-16T06:25:27;101135.25;;;12.87;91.87
68871;BME280;55906;52.278;6.808;2022-10-16T06:27:53;101135.19;;;12.83;92.00
68871;BME280;55906;52.278;6.808;2022-10-16T06:30:21;101134.38;;;12.86;91.87
68871;BME280;55906;52.278;6.808;2022-10-16T06:32:48;101138.84;;;12.90;91.67
68871;BME280;55906;52.278;6.808;2022-10-16T06:35:14;101144.03;;;12.86;91.93
68871;BME280;55906;52.278;6.808;2022-10-16T06:37:41;101145.75;;;12.83;91.93
68871;BME280;55906;52.278;6.808;2022-10-16T06:40:08;101148.28;;;12.79;92.10
68871;BME280;55906;52.278;6.808;2022-10-16T06:42:35;101165.09;;;12.82;92.06
68871;BME280;55906;52.278;6.808;2022-10-16T06:45:01;101153.72;;;12.85;91.89
68871;BME280;55906;52.278;6.808;2022-10-16T06:47:29;101173.13;;;12.87;91.77
68871;BME280;55906;52.278;6.808;2022-10-16T06:49:56;101176.63;;;12.86;92.16
68871;BME280;55906;52.278;6.808;2022-10-16T06:52:23;101174.91;;;12.88;91.99
68871;BME280;55906;52.278;6.808;2022-10-16T06:54:50;101182.91;;;12.93;91.84
68871;BME280;55906;52.278;6.808;2022-10-16T06:57:19;101176.97;;;13.01;91.24
68871;BME280;55906;52.278;6.808;2022-10-16T06:59:46;101177.09;;;13.07;90.91
68871;BME280;55906;52.278;6.808;2022-10-16T07:02:13;101177.50;;;13.26;90.54
68871;BME280;55906;52.278;6.808;2022-10-16T07:04:41;101183.97;;;13.41;89.57
68871;BME280;55906;52.278;6.808;2022-10-16T07:07:07;101197.56;;;13.61;89.04
68871;BME280;55906;52.278;6.808;2022-10-16T07:09:34;101192.06;;;13.99;87.77
68871;BME280;55906;52.278;6.808;2022-10-16T07:12:00;101196.41;;;14.45;85.29
68871;BME280;55906;52.278;6.808;2022-10-16T07:14:27;101201.25;;;14.73;84.46
68871;BME280;55906;52.278;6.808;2022-10-16T07:16:55;101193.69;;;15.02;83.80
68871;BME280;55906;52.278;6.808;2022-10-16T07:19:22;101196.41;;;15.07;82.53
68871;BME280;55906;52.278;6.808;2022-10-16T07:21:50;101200.66;;;14.96;82.41
68871;BME280;55906;52.278;6.808;2022-10-16T07:24:16;101205.00;;;14.89;82.67
68871;BME280;55906;52.278;6.808;2022-10-16T07:26:44;101228.91;;;14.94;82.77
68871;BME280;55906;52.278;6.808;2022-10-16T07:29:13;101235.09;;;14.94;82.88
68871;BME280;55906;52.278;6.808;2022-10-16T07:31:40;101235.91;;;14.89;82.30
68871;BME280;55906;52.278;6.808;2022-10-16T07:34:07;101244.66;;;14.85;81.79
68871;BME280;55906;52.278;6.808;2022-10-16T07:36:34;101244.56;;;14.79;82.21
68871;BME280;55906;52.278;6.808;2022-10-16T07:39:06;101246.44;;;14.86;82.18
68871;BME280;55906;52.278;6.808;2022-10-16T07:41:33;101252.53;;;14.80;82.28
68871;BME280;55906;52.278;6.808;2022-10-16T07:44:02;101255.16;;;14.79;82.39
68871;BME280;55906;52.278;6.808;2022-10-16T07:46:29;101258.72;;;14.79;82.10
68871;BME280;55906;52.278;6.808;2022-10-16T07:48:56;101251.56;;;14.73;82.37
68871;BME280;55906;52.278;6.808;2022-10-16T07:51:25;101261.47;;;14.87;81.88
68871;BME280;55906;52.278;6.808;2022-10-16T07:53:52;101269.75;;;15.11;81.46
68871;BME280;55906;52.278;6.808;2022-10-16T07:56:21;101275.16;;;15.17;80.69
68871;BME280;55906;52.278;6.808;2022-10-16T07:58:47;101267.31;;;15.25;80.94
68871;BME280;55906;52.278;6.808;2022-10-16T08:01:16;101270.88;;;15.28;80.08
68871;BME280;55906;52.278;6.808;2022-10-16T08:03:44;101276.31;;;15.39;79.62
68871;BME280;55906;52.278;6.808;2022-10-16T08:06:11;101293.50;;;15.64;78.92
68871;BME280;55906;52.278;6.808;2022-10-16T08:08:38;101296.41;;;15.87;77.53
68871;BME280;55906;52.278;6.808;2022-10-16T08:11:04;101300.28;;;16.21;76.65
68871;BME280;55906;52.278;6.808;2022-10-16T08:13:33;101296.78;;;16.25;77.28
68871;BME280;55906;52.278;6.808;2022-10-16T08:16:00;101301.09;;;16.12;76.37
68871;BME280;55906;52.278;6.808;2022-10-16T08:18:27;101308.09;;;16.06;76.42
68871;BME280;55906;52.278;6.808;2022-10-16T08:20:57;101307.22;;;16.05;76.24
68871;BME280;55906;52.278;6.808;2022-10-16T08:23:25;101310.72;;;16.03;76.84
68871;BME280;55906;52.278;6.808;2022-10-16T08:25:52;101317.78;;;16.00;76.48
68871;BME280;55906;52.278;6.808;2022-10-16T08:28:20;101323.09;;;16.00;76.47
68871;BME280;55906;52.278;6.808;2022-10-16T08:30:48;101315.16;;;16.02;76.49
68871;BME280;55906;52.278;6.808;2022-10-16T08:33:14;101317.81;;;16.02;76.06
68871;BME280;55906;52.278;6.808;2022-10-16T08:35:41;101337.31;;;16.06;76.14
68871;BME280;55906;52.278;6.808;2022-10-16T08:38:08;101328.41;;;16.00;76.21
68871;BME280;55906;52.278;6.808;2022-10-16T08:40:36;101332.97;;;16.14;76.25
68871;BME280;55906;52.278;6.808;2022-10-16T08:43:26;101331.31;;;16.23;75.97
68871;BME280;55906;52.278;6.808;2022-10-16T08:46:15;101330.50;;;16.32;75.43
68871;BME280;55906;52.278;6.808;2022-10-16T08:48:48;101329.75;;;16.45;74.97
68871;BME280;55906;52.278;6.808;2022-10-16T08:51:20;101338.84;;;16.70;74.15
68871;BME280;55906;52.278;6.808;2022-10-16T08:53:50;101327.47;;;16.86;74.06
68871;BME280;55906;52.278;6.808;2022-10-16T08:56:19;101326.75;;;17.09;72.56
68871;BME280;55906;52.278;6.808;2022-10-16T08:58:46;101316.34;;;17.47;72.08
68871;BME280;55906;52.278;6.808;2022-10-16T09:01:16;101333.22;;;17.55;70.03
68871;BME280;55906;52.278;6.808;2022-10-16T09:04:05;101336.88;;;17.71;68.64
68871;BME280;55906;52.278;6.808;2022-10-16T09:06:42;101337.75;;;17.68;68.06
68871;BME280;55906;52.278;6.808;2022-10-16T09:12:07;101353.78;;;17.86;67.52
68871;BME280;55906;52.278;6.808;2022-10-16T09:14:50;101360.16;;;18.20;66.62
68871;BME280;55906;52.278;6.808;2022-10-16T09:17:30;101355.75;;;18.56;65.44
68871;BME280;55906;52.278;6.808;2022-10-16T09:20:13;101358.47;;;19.08;63.89
68871;BME280;55906;52.278;6.808;2022-10-16T09:22:41;101360.22;;;19.24;64.16
68871;BME280;55906;52.278;6.808;2022-10-16T09:25:11;101373.53;;;19.30;63.44
68871;BME280;55906;52.278;6.808;2022-10-16T09:27:39;101374.44;;;19.26;63.67
68871;BME280;55906;52.278;6.808;2022-10-16T09:30:12;101370.88;;;19.55;61.42
68871;BME280;55906;52.278;6.808;2022-10-16T09:32:41;101369.00;;;19.81;60.91
68871;BME280;55906;52.278;6.808;2022-10-16T09:35:14;101380.63;;;19.40;61.71
68871;BME280;55906;52.278;6.808;2022-10-16T09:37:42;101394.88;;;19.62;60.55
68871;BME280;55906;52.278;6.808;2022-10-16T09:40:13;101393.81;;;20.07;58.50
68871;BME280;55906;52.278;6.808;2022-10-16T09:42:40;101399.00;;;20.41;58.03
68871;BME280;55906;52.278;6.808;2022-10-16T09:45:20;101391.66;;;20.72;57.28
68871;BME280;55906;52.278;6.808;2022-10-16T09:47:49;101395.09;;;20.95;56.47
68871;BME280;55906;52.278;6.808;2022-10-16T09:50:22;101383.19;;;21.30;54.80
68871;BME280;55906;52.278;6.808;2022-10-16T09:52:50;101400.03;;;21.41;55.10
68871;BME280;55906;52.278;6.808;2022-10-16T09:55:18;101405.19;;;21.61;53.86
68871;BME280;55906;52.278;6.808;2022-10-16T09:57:49;101405.59;;;22.02;52.88
68871;BME280;55906;52.278;6.808;2022-10-16T10:00:16;101418.44;;;21.73;53.11
68871;BME280;55906;52.278;6.808;2022-10-16T10:02:43;101411.38;;;21.66;53.54
68871;BME280;55906;52.278;6.808;2022-10-16T10:05:20;101418.03;;;21.27;53.76
68871;BME280;55906;52.278;6.808;2022-10-16T10:07:54;101411.78;;;21.22;52.69
68871;BME280;55906;52.278;6.808;2022-10-16T10:10:23;101415.59;;;20.96;54.04
68871;BME280;55906;52.278;6.808;2022-10-16T10:12:50;101421.06;;;20.81;54.40
68871;BME280;55906;52.278;6.808;2022-10-16T10:15:17;101429.84;;;20.98;53.61
68871;BME280;55906;52.278;6.808;2022-10-16T10:17:48;101419.53;;;21.54;51.92
68871;BME280;55906;52.278;6.808;2022-10-16T10:20:25;101423.31;;;21.34;52.28
68871;BME280;55906;52.278;6.808;2022-10-16T10:22:53;101424.06;;;21.49;52.65
68871;BME280;55906;52.278;6.808;2022-10-16T10:25:48;101437.69;;;22.10;50.73
68871;BME280;55906;52.278;6.808;2022-10-16T10:28:28;101441.41;;;21.94;50.89
68871;BME280;55906;52.278;6.808;2022-10-16T10:31:02;101426.94;;;22.13;50.77
68871;BME280;55906;52.278;6.808;2022-10-16T10:33:38;101423.97;;;22.34;49.00
68871;BME280;55906;52.278;6.808;2022-10-16T10:36:18;101431.91;;;22.44;49.02
68871;BME280;55906;52.278;6.808;2022-10-16T10:38:50;101435.63;;;22.95;48.41
68871;BME280;55906;52.278;6.808;2022-10-16T10:41:57;101430.91;;;23.09;46.78
68871;BME280;55906;52.278;6.808;2022-10-16T10:47:20;101441.06;;;22.90;46.93
68871;BME280;55906;52.278;6.808;2022-10-16T10:49:59;101441.56;;;23.15;46.84
68871;BME280;55906;52.278;6.808;2022-10-16T10:52:41;101428.38;;;23.52;44.60
68871;BME280;55906;52.278;6.808;2022-10-16T10:55:19;101426.56;;;23.56;44.98
68871;BME280;55906;52.278;6.808;2022-10-16T11:00:44;101435.81;;;23.87;43.32
68871;BME280;55906;52.278;6.808;2022-10-16T11:03:26;101433.97;;;23.89;42.88
68871;BME280;55906;52.278;6.808;2022-10-16T11:05:57;101413.72;;;23.72;43.61
68871;BME280;55906;52.278;6.808;2022-10-16T11:08:30;101436.06;;;24.18;42.77
68871;BME280;55906;52.278;6.808;2022-10-16T11:11:02;101437.66;;;24.69;41.39
68871;BME280;55906;52.278;6.808;2022-10-16T11:13:33;101438.31;;;24.80;41.04
68871;BME280;55906;52.278;6.808;2022-10-16T11:16:15;101432.16;;;25.12;39.66
68871;BME280;55906;52.278;6.808;2022-10-16T11:18:49;101433.31;;;25.02;40.33
68871;BME280;55906;52.278;6.808;2022-10-16T11:21:19;101428.06;;;24.97;39.77
68871;BME280;55906;52.278;6.808;2022-10-16T11:23:53;101428.41;;;25.53;39.13
68871;BME280;55906;52.278;6.808;2022-10-16T11:26:26;101417.28;;;24.97;39.71
68871;BME280;55906;52.278;6.808;2022-10-16T11:28:55;101427.16;;;25.32;39.92
68871;BME280;55906;52.278;6.808;2022-10-16T11:31:28;101427.16;;;25.66;38.97
68871;BME280;55906;52.278;6.808;2022-10-16T11:34:03;101429.25;;;25.88;38.39
68871;BME280;55906;52.278;6.808;2022-10-16T11:36:36;101434.38;;;25.64;37.72
68871;BME280;55906;52.278;6.808;2022-10-16T11:39:16;101439.47;;;26.09;37.15
68871;BME280;55906;52.278;6.808;2022-10-16T11:41:48;101459.31;;;25.74;38.05
68871;BME280;55906;52.278;6.808;2022-10-16T11:44:38;101455.25;;;24.85;38.47
68871;BME280;55906;52.278;6.808;2022-10-16T11:47:16;101461.28;;;24.95;38.78
68871;BME280;55906;52.278;6.808;2022-10-16T11:49:47;101474.34;;;24.33;39.56
68871;BME280;55906;52.278;6.808;2022-10-16T11:52:20;101467.81;;;24.00;40.14
68871;BME280;55906;52.278;6.808;2022-10-16T11:54:54;101469.53;;;23.57;41.44
68871;BME280;55906;52.278;6.808;2022-10-16T11:57:24;101462.09;;;23.72;41.14
68871;BME280;55906;52.278;6.808;2022-10-16T11:59:55;101470.81;;;23.84;40.58
68871;BME280;55906;52.278;6.808;2022-10-16T12:02:33;101482.13;;;24.02;39.89
68871;BME280;55906;52.278;6.808;2022-10-16T12:05:12;101467.72;;;24.49;38.99
68871;BME280;55906;52.278;6.808;2022-10-16T12:07:46;101476.69;;;24.48;37.95
68871;BME280;55906;52.278;6.808;2022-10-16T12:10:25;101469.34;;;24.56;37.70
68871;BME280;55906;52.278;6.808;2022-10-16T12:12:53;101474.13;;;23.97;39.68
68871;BME280;55906;52.278;6.808;2022-10-16T12:15:23;101479.41;;;23.54;39.97
68871;BME280;55906;52.278;6.808;2022-10-16T12:17:50;101478.84;;;22.74;42.25
68871;BME280;55906;52.278;6.808;2022-10-16T12:20:35;101495.72;;;22.85;41.79
68871;BME280;55906;52.278;6.808;2022-10-16T12:23:05;101491.69;;;22.52;42.68
68871;BME280;55906;52.278;6.808;2022-10-16T12:25:35;101487.94;;;23.25;41.65
68871;BME280;55906;52.278;6.808;2022-10-16T12:28:06;101484.28;;;23.83;40.53
68871;BME280;55906;52.278;6.808;2022-10-16T12:30:35;101486.56;;;24.47;39.61
68871;BME280;55906;52.278;6.808;2022-10-16T12:33:04;101495.66;;;24.83;38.87
68871;BME280;55906;52.278;6.808;2022-10-16T12:35:33;101478.75;;;25.51;37.87
68871;BME280;55906;52.278;6.808;2022-10-16T12:38:06;101471.81;;;25.76;36.51
68871;BME280;55906;52.278;6.808;2022-10-16T12:40:37;101476.63;;;25.65;37.20
68871;BME280;55906;52.278;6.808;2022-10-16T12:43:26;101493.41;;;25.04;37.38
68871;BME280;55906;52.278;6.808;2022-10-16T12:46:02;101489.94;;;24.99;38.28
68871;BME280;55906;52.278;6.808;2022-10-16T12:48:29;101500.75;;;24.96;37.92
68871;BME280;55906;52.278;6.808;2022-10-16T12:50:56;101499.53;;;24.70;38.88
68871;BME280;55906;52.278;6.808;2022-10-16T12:53:25;101493.50;;;25.01;38.71
68871;BME280;55906;52.278;6.808;2022-10-16T12:56:01;101491.97;;;24.87;38.74
68871;BME280;55906;52.278;6.808;2022-10-16T12:59:02;101498.34;;;24.83;38.26
68871;BME280;55906;52.278;6.808;2022-10-16T13:01:40;101498.59;;;24.30;39.03
68871;BME280;55906;52.278;6.808;2022-10-16T13:04:39;101505.22;;;23.64;39.93
68871;BME280;55906;52.278;6.808;2022-10-16T13:07:24;101511.00;;;23.90;39.77
68871;BME280;55906;52.278;6.808;2022-10-16T13:10:03;101513.22;;;23.67;40.07
68871;BME280;55906;52.278;6.808;2022-10-16T13:12:49;101514.88;;;23.76;39.86
68871;BME280;55906;52.278;6.808;2022-10-16T13:15:29;101506.88;;;24.62;38.83